createdAt,value
2019-02-18T00:00:24.326Z,60.30
2019-02-18T00:02:52.800Z,63.40
2019-02-18T00:05:21.265Z,63.30
2019-02-18T00:07:49.709Z,63.80
2019-02-18T00:10:18.191Z,62.30
2019-02-18T00:12:46.634Z,60.70
2019-02-18T00:15:15.124Z,61.00
2019-02-18T00:17:43.579Z,63.30
2019-02-18T00:20:12.121Z,64.30
2019-02-18T00:22:40.577Z,61.60
2019-02-18T00:25:09.108Z,62.00
2019-02-18T00:27:37.578Z,60.80
2019-02-18T00:30:08.291Z,61.10
2019-02-18T00:32:36.751Z,62.10
2019-02-18T00:35:05.377Z,60.30
2019-02-18T00:37:33.826Z,60.90
2019-02-18T00:40:02.309Z,62.70
2019-02-18T00:42:30.766Z,60.70
2019-02-18T00:44:59.210Z,58.70
2019-02-18T00:47:27.683Z,57.90
2019-02-18T00:49:56.156Z,61.10
2019-02-18T00:52:24.615Z,56.40
2019-02-18T00:54:53.083Z,56.80
2019-02-18T00:57:21.559Z,55.10
2019-02-18T00:59:50.043Z,60.50
2019-02-18T01:02:18.563Z,55.20
2019-02-18T01:04:47.015Z,60.40
2019-02-18T01:07:15.545Z,53.10
2019-02-18T01:09:44.271Z,51.60
2019-02-18T01:12:12.815Z,52.90
2019-02-18T01:14:41.512Z,52.00
2019-02-18T01:17:09.983Z,54.60
2019-02-18T01:19:38.450Z,56.60
2019-02-18T01:22:06.930Z,56.00
2019-02-18T01:24:35.669Z,50.60
2019-02-18T01:27:04.203Z,55.40
2019-02-18T01:29:32.674Z,51.10
2019-02-18T01:32:01.151Z,51.90
2019-02-18T01:34:29.630Z,52.90
2019-02-18T01:36:58.075Z,56.50
2019-02-18T01:39:26.541Z,54.40
2019-02-18T01:41:55.008Z,52.60
2019-02-18T01:44:23.524Z,52.10
2019-02-18T01:46:52.042Z,49.70
2019-02-18T01:49:20.483Z,49.70
2019-02-18T01:51:48.949Z,52.00
2019-02-18T01:54:17.427Z,52.00
2019-02-18T01:56:45.889Z,51.60
2019-02-18T01:59:14.346Z,51.80
2019-02-18T02:01:42.835Z,52.70
2019-02-18T02:04:11.298Z,51.00
2019-02-18T02:06:39.787Z,51.30
2019-02-18T02:09:11.025Z,50.10
2019-02-18T02:11:39.493Z,51.20
2019-02-18T02:14:07.967Z,51.20
2019-02-18T02:16:36.771Z,50.50
2019-02-18T02:19:05.225Z,51.40
2019-02-18T02:21:33.698Z,52.00
2019-02-18T02:24:02.147Z,51.90
2019-02-18T02:26:30.628Z,51.20
2019-02-18T02:28:59.084Z,52.50
2019-02-18T02:31:27.559Z,52.20
2019-02-18T02:33:56.011Z,52.00
2019-02-18T02:36:24.485Z,50.70
2019-02-18T02:38:52.936Z,51.40
2019-02-18T02:41:21.407Z,50.90
2019-02-18T02:43:49.869Z,51.00
2019-02-18T02:46:18.336Z,51.00
2019-02-18T02:48:46.812Z,50.70
2019-02-18T02:51:15.264Z,51.30
2019-02-18T02:53:43.749Z,51.80
2019-02-18T02:56:12.286Z,51.60
2019-02-18T02:58:40.763Z,52.30
2019-02-18T03:01:09.230Z,52.30
2019-02-18T03:03:37.734Z,51.60
2019-02-18T03:06:06.197Z,52.30
2019-02-18T03:08:34.637Z,50.80
2019-02-18T03:11:03.113Z,52.60
2019-02-18T03:13:31.567Z,52.40
2019-02-18T03:16:00.043Z,53.30
2019-02-18T03:18:28.499Z,52.90
2019-02-18T03:20:56.976Z,51.40
2019-02-18T03:23:25.462Z,50.40
2019-02-18T03:25:53.941Z,51.40
2019-02-18T03:28:34.694Z,52.50
2019-02-18T03:31:06.572Z,52.60
2019-02-18T03:33:53.272Z,51.30
2019-02-18T03:36:21.809Z,53.10
2019-02-18T03:38:50.287Z,50.10
2019-02-18T03:41:18.774Z,51.50
2019-02-18T03:43:47.249Z,51.10
2019-02-18T03:46:15.732Z,51.60
2019-02-18T03:48:44.166Z,51.40
2019-02-18T03:51:12.719Z,51.20
2019-02-18T03:53:41.187Z,51.20
2019-02-18T03:56:09.681Z,52.30
2019-02-18T03:58:38.290Z,51.40
2019-02-18T04:01:11.696Z,51.90
2019-02-18T04:03:39.736Z,51.20
2019-02-18T04:06:08.192Z,50.90
2019-02-18T04:08:42.832Z,51.70
2019-02-18T04:11:06.857Z,52.40
2019-02-18T04:13:35.308Z,51.10
2019-02-18T04:16:03.893Z,52.80
2019-02-18T04:18:32.369Z,53.80
2019-02-18T04:21:00.841Z,53.40
2019-02-18T04:23:29.705Z,53.50
2019-02-18T04:25:58.159Z,53.80
2019-02-18T04:28:26.615Z,53.00
2019-02-18T04:30:55.341Z,54.50
2019-02-18T04:33:23.789Z,54.40
2019-02-18T04:35:52.255Z,54.40
2019-02-18T04:38:20.725Z,52.90
2019-02-18T04:40:49.222Z,52.70
2019-02-18T04:43:17.690Z,51.00
2019-02-18T04:45:46.211Z,51.10
2019-02-18T04:48:14.695Z,50.30
2019-02-18T04:50:43.151Z,51.80
2019-02-18T04:53:11.593Z,52.60
2019-02-18T04:55:40.362Z,52.50
2019-02-18T04:58:08.806Z,54.00
2019-02-18T05:00:37.399Z,53.60
2019-02-18T05:03:06.223Z,53.60
2019-02-18T05:05:34.680Z,53.30
2019-02-18T05:08:03.137Z,54.40
2019-02-18T05:10:31.601Z,55.60
2019-02-18T05:13:00.075Z,55.00
2019-02-18T05:15:28.560Z,54.10
2019-02-18T05:17:57.021Z,55.10
2019-02-18T05:20:25.490Z,54.30
2019-02-18T05:22:53.986Z,54.80
2019-02-18T05:25:22.550Z,54.80
2019-02-18T05:27:51.036Z,54.10
2019-02-18T05:30:19.563Z,53.90
2019-02-18T05:32:48.042Z,53.60
2019-02-18T05:35:16.490Z,53.00
2019-02-18T05:37:44.977Z,53.20
2019-02-18T05:40:13.451Z,54.30
2019-02-18T05:42:41.930Z,53.70
2019-02-18T05:45:10.382Z,53.90
2019-02-18T05:47:38.918Z,55.10
2019-02-18T05:50:08.502Z,57.60
2019-02-18T05:52:36.965Z,57.20
2019-02-18T05:55:06.808Z,55.70
2019-02-18T05:57:35.584Z,57.10
2019-02-18T06:00:05.857Z,57.60
2019-02-18T06:02:34.406Z,57.50
2019-02-18T06:05:03.188Z,57.80
2019-02-18T06:07:31.750Z,58.10
2019-02-18T06:10:00.280Z,57.40
2019-02-18T06:12:28.797Z,56.70
2019-02-18T06:14:57.315Z,56.70
2019-02-18T06:17:25.771Z,56.60
2019-02-18T06:19:54.260Z,56.60
2019-02-18T06:22:23.140Z,58.30
2019-02-18T06:24:51.642Z,56.50
2019-02-18T06:27:20.124Z,56.20
2019-02-18T06:29:48.572Z,57.10
2019-02-18T06:32:17.078Z,58.40
2019-02-18T06:34:45.531Z,58.00
2019-02-18T06:37:13.970Z,57.80
2019-02-18T06:39:42.752Z,57.50
2019-02-18T06:42:11.427Z,57.20
2019-02-18T06:44:44.555Z,58.00
2019-02-18T06:47:13.011Z,57.50
2019-02-18T06:49:41.487Z,57.80
2019-02-18T06:52:09.943Z,57.90
2019-02-18T06:54:38.395Z,57.80
2019-02-18T06:57:08.504Z,57.50
2019-02-18T06:59:38.901Z,57.00
2019-02-18T07:02:11.737Z,57.30
2019-02-18T07:04:44.570Z,57.70
2019-02-18T07:07:26.569Z,58.50
2019-02-18T07:09:56.670Z,59.20
2019-02-18T07:12:35.511Z,59.30
2019-02-18T07:15:04.906Z,59.70
2019-02-18T07:17:33.704Z,59.70
2019-02-18T07:20:02.154Z,59.70
2019-02-18T07:22:30.981Z,61.80
2019-02-18T07:24:59.435Z,62.40
2019-02-18T07:27:27.911Z,62.70
2019-02-18T07:29:56.353Z,62.60
2019-02-18T07:32:24.821Z,63.30
2019-02-18T07:34:53.308Z,63.30
2019-02-18T07:37:21.819Z,63.30
2019-02-18T07:40:00.850Z,64.00
2019-02-18T07:42:20.861Z,64.20
2019-02-18T07:44:49.341Z,61.70
2019-02-18T07:47:18.158Z,62.60
2019-02-18T07:49:46.695Z,65.30
2019-02-18T07:52:15.179Z,66.60
2019-02-18T07:54:43.671Z,65.10
2019-02-18T07:57:12.128Z,63.70
2019-02-18T07:59:42.754Z,67.20
2019-02-18T08:02:10.781Z,67.60
2019-02-18T08:04:39.257Z,67.70
2019-02-18T08:07:08.053Z,65.30
2019-02-18T08:09:36.852Z,62.70
2019-02-18T08:12:05.366Z,64.00
2019-02-18T08:14:33.929Z,67.60
2019-02-18T08:17:02.434Z,68.00
2019-02-18T08:19:30.924Z,67.50
2019-02-18T08:21:59.358Z,66.30
2019-02-18T08:24:28.105Z,66.50
2019-02-18T08:26:56.550Z,66.90
2019-02-18T08:29:25.305Z,66.40
2019-02-18T08:31:53.792Z,63.50
2019-02-18T08:34:22.247Z,61.70
2019-02-18T08:36:50.698Z,67.60
2019-02-18T08:39:19.174Z,68.90
2019-02-18T08:41:47.651Z,69.40
2019-02-18T08:44:16.099Z,70.00
2019-02-18T08:46:44.565Z,69.70
2019-02-18T08:49:13.010Z,70.80
2019-02-18T08:51:41.495Z,70.50
2019-02-18T08:54:09.946Z,69.50
2019-02-18T08:56:38.407Z,70.50
2019-02-18T08:59:06.942Z,70.60
2019-02-18T09:01:35.405Z,70.70
2019-02-18T09:04:03.951Z,70.80
2019-02-18T09:06:32.394Z,70.70
2019-02-18T09:09:01.227Z,70.30
2019-02-18T09:11:29.699Z,70.20
2019-02-18T09:13:58.177Z,69.50
2019-02-18T09:16:26.646Z,71.20
2019-02-18T09:18:55.105Z,70.70
2019-02-18T09:21:24.379Z,72.10
2019-02-18T09:23:57.954Z,70.20
2019-02-18T09:26:26.446Z,71.50
2019-02-18T09:28:55.146Z,70.60
2019-02-18T09:31:25.275Z,68.90
2019-02-18T09:33:53.733Z,70.70
2019-02-18T09:36:22.187Z,69.90
2019-02-18T09:38:50.664Z,69.40
2019-02-18T09:41:19.173Z,69.60
2019-02-18T09:43:47.700Z,69.40
2019-02-18T09:46:16.155Z,67.90
2019-02-18T09:48:44.913Z,68.50
2019-02-18T09:51:13.388Z,67.60
2019-02-18T09:53:43.821Z,68.50
2019-02-18T09:56:12.284Z,69.40
2019-02-18T09:58:40.756Z,68.30
2019-02-18T10:01:12.052Z,67.00
2019-02-18T10:03:40.525Z,69.00
2019-02-18T10:06:08.976Z,68.70
2019-02-18T10:08:37.437Z,68.50
2019-02-18T10:11:05.882Z,68.70
2019-02-18T10:13:34.669Z,68.30
2019-02-18T10:16:03.405Z,67.20
2019-02-18T10:18:32.232Z,67.20
2019-02-18T10:21:01.030Z,65.30
2019-02-18T10:23:29.493Z,64.60
2019-02-18T10:25:57.982Z,64.60
2019-02-18T10:28:26.434Z,64.60
2019-02-18T10:30:54.900Z,64.80
2019-02-18T10:33:23.388Z,63.30
2019-02-18T10:35:51.858Z,64.40
2019-02-18T10:38:20.351Z,64.00
2019-02-18T10:40:49.079Z,64.70
2019-02-18T10:43:17.545Z,63.00
2019-02-18T10:45:46.028Z,62.40
2019-02-18T10:48:14.497Z,63.40
2019-02-18T10:50:43.623Z,62.60
2019-02-18T10:53:12.435Z,60.30
2019-02-18T10:55:40.971Z,60.60
2019-02-18T10:58:09.452Z,59.30
2019-02-18T11:00:37.915Z,59.80
2019-02-18T11:03:06.525Z,59.30
2019-02-18T11:05:34.986Z,59.40
2019-02-18T11:08:03.444Z,59.80
2019-02-18T11:10:31.940Z,57.70
2019-02-18T11:13:00.469Z,61.30
2019-02-18T11:15:29.673Z,61.40
2019-02-18T11:17:58.132Z,61.10
2019-02-18T11:20:26.627Z,61.10
2019-02-18T11:22:55.423Z,60.80
2019-02-18T11:25:23.896Z,60.70
2019-02-18T11:27:52.429Z,59.40
2019-02-18T11:30:21.166Z,59.40
2019-02-18T11:32:49.645Z,59.00
2019-02-18T11:35:18.204Z,59.10
2019-02-18T11:37:46.693Z,58.40
2019-02-18T11:40:16.907Z,56.00
2019-02-18T11:42:45.519Z,56.60
2019-02-18T11:45:15.219Z,58.10
2019-02-18T11:47:43.825Z,57.40
2019-02-18T11:50:16.123Z,55.60
2019-02-18T11:52:44.679Z,53.00
2019-02-18T11:55:14.072Z,53.70
2019-02-18T11:57:42.900Z,53.10
2019-02-18T12:00:13.403Z,52.90
2019-02-18T12:02:41.955Z,52.30
2019-02-18T12:05:11.271Z,52.90
2019-02-18T12:07:40.179Z,53.20
2019-02-18T12:10:13.606Z,53.50
2019-02-18T12:12:42.475Z,53.40
2019-02-18T12:15:17.121Z,52.50
2019-02-18T12:17:45.680Z,52.50
2019-02-18T12:20:15.019Z,51.80
2019-02-18T12:22:43.609Z,50.30
2019-02-18T12:25:13.281Z,50.20
2019-02-18T12:27:42.484Z,49.70
2019-02-18T12:30:18.602Z,49.90
2019-02-18T12:32:47.155Z,50.60
2019-02-18T12:35:15.786Z,50.80
2019-02-18T12:37:54.662Z,50.10
2019-02-18T12:40:14.925Z,49.70
2019-02-18T12:42:43.392Z,49.50
2019-02-18T12:45:12.816Z,49.70
2019-02-18T12:47:41.462Z,49.20
2019-02-18T12:50:11.680Z,49.90
2019-02-18T12:52:40.324Z,48.70
2019-02-18T12:55:10.405Z,48.90
2019-02-18T12:57:39.293Z,49.90
2019-02-18T13:00:15.382Z,49.00
2019-02-18T13:02:45.012Z,49.10
2019-02-18T13:05:14.175Z,47.70
2019-02-18T13:07:42.815Z,48.30
2019-02-18T13:10:12.566Z,46.40
2019-02-18T13:12:41.436Z,47.10
2019-02-18T13:15:12.619Z,45.80
2019-02-18T13:17:42.857Z,45.90
2019-02-18T13:20:11.529Z,46.10
2019-02-18T13:22:40.398Z,46.10
2019-02-18T13:25:09.995Z,46.20
2019-02-18T13:27:38.603Z,46.30
2019-02-18T13:30:21.194Z,45.80
2019-02-18T13:32:49.798Z,46.00
2019-02-18T13:35:18.423Z,46.90
2019-02-18T13:37:46.883Z,47.90
2019-02-18T13:40:16.596Z,47.60
2019-02-18T13:42:45.548Z,47.10
2019-02-18T13:45:14.212Z,47.20
2019-02-18T13:47:42.747Z,45.80
2019-02-18T13:50:12.639Z,47.70
2019-02-18T13:52:41.181Z,47.40
2019-02-18T13:55:11.459Z,46.90
2019-02-18T13:57:40.457Z,45.80
2019-02-18T14:00:13.635Z,46.80
2019-02-18T14:02:42.176Z,46.10
2019-02-18T14:05:10.867Z,46.70
2019-02-18T14:07:39.465Z,45.30
2019-02-18T14:10:08.600Z,43.70
2019-02-18T14:12:37.439Z,44.40
2019-02-18T14:15:09.606Z,43.70
2019-02-18T14:17:38.551Z,44.50
2019-02-18T14:20:09.925Z,44.20
2019-02-18T14:22:38.523Z,43.60
2019-02-18T14:25:08.848Z,42.60
2019-02-18T14:27:37.515Z,42.40
2019-02-18T14:30:09.188Z,42.80
2019-02-18T14:32:37.661Z,42.90
2019-02-18T14:35:07.074Z,43.50
2019-02-18T14:37:35.616Z,43.40
2019-02-18T14:40:04.527Z,42.50
2019-02-18T14:42:33.154Z,42.50
2019-02-18T14:45:01.773Z,42.00
2019-02-18T14:47:30.231Z,43.00
2019-02-18T14:49:58.909Z,42.20
2019-02-18T14:52:27.843Z,41.00
2019-02-18T14:54:56.739Z,40.60
2019-02-18T14:57:25.756Z,41.10
2019-02-18T14:59:54.321Z,41.60
2019-02-18T15:02:22.833Z,41.70
2019-02-18T15:04:51.315Z,41.60
2019-02-18T15:07:20.167Z,41.40
2019-02-18T15:09:48.714Z,41.20
2019-02-18T15:12:18.267Z,40.90
2019-02-18T15:14:46.836Z,40.50
2019-02-18T15:17:15.353Z,40.80
2019-02-18T15:19:44.115Z,41.00
2019-02-18T15:22:12.667Z,40.00
2019-02-18T15:24:41.185Z,39.10
2019-02-18T15:27:09.755Z,39.60
2019-02-18T15:29:38.288Z,40.20
2019-02-18T15:32:06.747Z,40.00
2019-02-18T15:34:35.381Z,41.10
2019-02-18T15:37:03.934Z,40.40
2019-02-18T15:39:32.405Z,41.10
2019-02-18T15:42:01.037Z,41.50
2019-02-18T15:44:29.826Z,41.90
2019-02-18T15:46:58.376Z,42.20
2019-02-18T15:49:26.910Z,43.50
2019-02-18T15:51:55.377Z,42.70
2019-02-18T15:54:24.191Z,42.60
2019-02-18T15:56:52.722Z,42.40
2019-02-18T15:59:21.579Z,42.90
2019-02-18T16:01:50.267Z,44.20
2019-02-18T16:04:19.143Z,45.30
2019-02-18T16:06:47.618Z,44.00
2019-02-18T16:09:16.137Z,44.90
2019-02-18T16:11:44.695Z,46.70
2019-02-18T16:14:13.158Z,48.30
2019-02-18T16:16:41.695Z,49.40
2019-02-18T16:19:10.538Z,45.30
2019-02-18T16:21:39.092Z,46.50
2019-02-18T16:24:07.643Z,44.70
2019-02-18T16:26:36.119Z,43.90
2019-02-18T16:29:04.565Z,45.00
2019-02-18T16:31:33.433Z,45.90
2019-02-18T16:34:02.263Z,46.80
2019-02-18T16:36:31.048Z,47.30
2019-02-18T16:38:59.699Z,47.30
2019-02-18T16:41:28.221Z,48.10
2019-02-18T16:43:56.765Z,48.80
2019-02-18T16:46:25.529Z,49.20
2019-02-18T16:48:54.357Z,48.40
2019-02-18T16:51:22.897Z,49.00
2019-02-18T16:53:51.441Z,47.70
2019-02-18T16:56:19.986Z,48.90
2019-02-18T16:58:48.548Z,48.20
2019-02-18T17:01:17.418Z,50.00
2019-02-18T17:03:45.905Z,50.60
2019-02-18T17:06:14.432Z,50.30
2019-02-18T17:08:42.917Z,50.10
2019-02-18T17:11:11.381Z,50.40
2019-02-18T17:13:39.931Z,50.00
2019-02-18T17:16:08.449Z,49.50
2019-02-18T17:18:37.117Z,50.50
2019-02-18T17:21:05.680Z,49.90
2019-02-18T17:23:34.550Z,50.10
2019-02-18T17:26:03.450Z,51.50
2019-02-18T17:28:32.055Z,51.70
2019-02-18T17:31:00.543Z,50.10
2019-02-18T17:33:29.392Z,49.30
2019-02-18T17:35:58.195Z,48.20
2019-02-18T17:38:26.680Z,45.80
2019-02-18T17:40:55.230Z,45.50
2019-02-18T17:43:24.051Z,46.20
2019-02-18T17:45:52.603Z,45.30
2019-02-18T17:48:21.076Z,45.20
2019-02-18T17:50:49.828Z,44.80
2019-02-18T17:53:18.365Z,44.80
2019-02-18T17:55:46.821Z,45.90
2019-02-18T17:58:15.379Z,46.30
2019-02-18T18:00:45.486Z,47.40
2019-02-18T18:03:14.118Z,48.40
2019-02-18T18:05:44.628Z,48.70
2019-02-18T18:08:13.197Z,49.30
2019-02-18T18:10:41.814Z,48.90
2019-02-18T18:13:10.673Z,51.10
2019-02-18T18:15:39.215Z,51.50
2019-02-18T18:18:07.737Z,51.00
2019-02-18T18:20:36.592Z,51.80
2019-02-18T18:23:05.132Z,50.20
2019-02-18T18:25:33.976Z,49.90
2019-02-18T18:28:02.778Z,49.30
2019-02-18T18:30:31.401Z,48.30
2019-02-18T18:32:59.922Z,48.70
2019-02-18T18:35:28.732Z,48.70
2019-02-18T18:37:57.273Z,50.70
2019-02-18T18:40:25.748Z,49.90
2019-02-18T18:42:54.303Z,51.00
2019-02-18T18:45:23.010Z,50.80
2019-02-18T18:47:51.488Z,51.50
2019-02-18T18:50:21.663Z,51.90
2019-02-18T18:52:50.341Z,51.70
2019-02-18T18:55:18.881Z,50.80
2019-02-18T18:57:47.366Z,50.20
2019-02-18T19:00:20.209Z,51.70
2019-02-18T19:02:48.687Z,53.20
2019-02-18T19:05:17.372Z,53.90
2019-02-18T19:07:45.861Z,51.80
2019-02-18T19:10:14.382Z,52.70
2019-02-18T19:12:42.921Z,52.90
2019-02-18T19:15:15.889Z,53.20
2019-02-18T19:17:44.384Z,52.30
2019-02-18T19:20:13.456Z,51.70
2019-02-18T19:22:41.901Z,51.90
2019-02-18T19:25:12.490Z,52.90
2019-02-18T19:27:41.087Z,54.20
2019-02-18T19:30:15.410Z,54.20
2019-02-18T19:32:43.891Z,54.90
2019-02-18T19:35:12.668Z,54.50
2019-02-18T19:37:41.194Z,54.90
2019-02-18T19:40:14.227Z,53.50
2019-02-18T19:42:42.683Z,54.50
2019-02-18T19:45:16.816Z,56.00
2019-02-18T19:47:45.369Z,56.90
2019-02-18T19:50:14.315Z,55.80
2019-02-18T19:52:42.866Z,54.90
2019-02-18T19:55:12.782Z,56.30
2019-02-18T19:57:41.596Z,55.90
2019-02-18T20:00:13.029Z,55.40
2019-02-18T20:02:41.497Z,56.90
2019-02-18T20:05:10.497Z,56.70
2019-02-18T20:07:38.971Z,58.20
2019-02-18T20:10:10.143Z,56.20
2019-02-18T20:12:38.774Z,56.10
2019-02-18T20:15:10.909Z,55.80
2019-02-18T20:17:39.450Z,56.70
2019-02-18T20:20:13.923Z,57.10
2019-02-18T20:22:42.546Z,57.70
2019-02-18T20:25:11.137Z,57.30
2019-02-18T20:27:39.608Z,56.70
2019-02-18T20:30:15.931Z,56.50
2019-02-18T20:32:44.709Z,56.90
2019-02-18T20:35:13.506Z,57.50
2019-02-18T20:37:42.111Z,57.80
2019-02-18T20:40:11.640Z,58.00
2019-02-18T20:42:40.657Z,57.30
2019-02-18T20:45:14.284Z,57.20
2019-02-18T20:47:42.825Z,58.30
2019-02-18T20:50:12.723Z,58.60
2019-02-18T20:52:41.181Z,56.80
2019-02-18T20:55:11.880Z,58.10
2019-02-18T20:57:40.629Z,57.80
2019-02-18T21:00:13.830Z,56.60
2019-02-18T21:02:42.314Z,56.70
2019-02-18T21:05:10.917Z,56.20
2019-02-18T21:07:39.452Z,56.70
2019-02-18T21:10:11.633Z,57.20
2019-02-18T21:12:40.184Z,57.30
2019-02-18T21:15:09.414Z,57.90
2019-02-18T21:17:37.885Z,58.50
2019-02-18T21:20:09.092Z,57.90
2019-02-18T21:22:37.615Z,57.70
2019-02-18T21:25:08.312Z,57.90
2019-02-18T21:27:36.779Z,58.10
2019-02-18T21:30:08.735Z,58.50
2019-02-18T21:32:37.194Z,58.70
2019-02-18T21:35:06.412Z,58.60
2019-02-18T21:37:35.016Z,58.80
2019-02-18T21:40:05.237Z,59.20
2019-02-18T21:42:33.706Z,59.50
2019-02-18T21:45:02.174Z,59.60
2019-02-18T21:47:30.646Z,60.00
2019-02-18T21:49:59.128Z,60.00
2019-02-18T21:52:27.587Z,59.80
2019-02-18T21:54:56.420Z,59.70
2019-02-18T21:57:25.158Z,59.90
2019-02-18T21:59:53.602Z,60.00
2019-02-18T22:02:23.353Z,60.30
2019-02-18T22:04:52.006Z,61.20
2019-02-18T22:07:20.810Z,60.20
2019-02-18T22:09:49.682Z,60.20
2019-02-18T22:12:18.139Z,60.00
2019-02-18T22:14:46.595Z,60.90
2019-02-18T22:17:15.079Z,60.60
2019-02-18T22:19:43.542Z,61.00
2019-02-18T22:22:11.999Z,61.00
2019-02-18T22:24:40.806Z,61.40
2019-02-18T22:27:09.781Z,61.10
2019-02-18T22:29:38.238Z,61.00
2019-02-18T22:32:06.689Z,61.40
2019-02-18T22:34:35.180Z,61.90
2019-02-18T22:37:03.641Z,62.00
2019-02-18T22:39:32.109Z,61.90
2019-02-18T22:42:00.567Z,62.00
2019-02-18T22:44:29.807Z,62.20
2019-02-18T22:46:58.272Z,62.20
2019-02-18T22:49:26.765Z,62.50
2019-02-18T22:51:55.223Z,62.20
2019-02-18T22:54:23.721Z,62.50
2019-02-18T22:56:52.246Z,62.70
2019-02-18T22:59:20.728Z,63.20
2019-02-18T23:01:49.638Z,62.80
2019-02-18T23:04:18.084Z,61.90
2019-02-18T23:06:46.568Z,62.00
2019-02-18T23:09:15.033Z,62.00
2019-02-18T23:11:43.500Z,62.20
2019-02-18T23:14:11.984Z,62.90
2019-02-18T23:16:40.525Z,62.20
2019-02-18T23:19:09.078Z,62.50
2019-02-18T23:21:37.535Z,62.90
2019-02-18T23:24:06.006Z,62.80
2019-02-18T23:26:34.481Z,62.00
2019-02-18T23:29:02.977Z,62.50
2019-02-18T23:31:31.504Z,63.40
2019-02-18T23:33:59.977Z,64.10
2019-02-18T23:36:28.455Z,63.90
2019-02-18T23:38:56.931Z,64.10
2019-02-18T23:41:25.407Z,64.00
2019-02-18T23:43:53.896Z,64.60
2019-02-18T23:46:22.368Z,64.70
2019-02-18T23:48:50.857Z,65.10
2019-02-18T23:51:19.314Z,64.80
2019-02-18T23:53:47.799Z,65.60
2019-02-18T23:56:16.273Z,65.50
2019-02-18T23:58:45.067Z,66.30
